createdAt,value
2018-09-20T00:01:09.955Z,17.50
2018-09-20T00:03:38.394Z,17.60
2018-09-20T00:06:06.853Z,17.60
2018-09-20T00:08:35.321Z,17.70
2018-09-20T00:11:03.789Z,17.70
2018-09-20T00:13:32.264Z,17.80
2018-09-20T00:16:00.725Z,17.90
2018-09-20T00:18:29.177Z,17.90
2018-09-20T00:20:57.616Z,18.00
2018-09-20T00:23:26.063Z,18.00
2018-09-20T00:25:54.509Z,18.00
2018-09-20T00:28:22.943Z,17.90
2018-09-20T00:30:51.391Z,17.90
2018-09-20T00:33:19.866Z,17.90
2018-09-20T00:35:48.285Z,17.80
2018-09-20T00:38:16.765Z,17.80
2018-09-20T00:40:45.197Z,17.80
2018-09-20T00:43:13.607Z,17.80
2018-09-20T00:45:42.092Z,17.70
2018-09-20T00:48:10.514Z,17.60
2018-09-20T00:50:38.936Z,17.50
2018-09-20T00:53:07.464Z,17.50
2018-09-20T00:55:35.904Z,17.40
2018-09-20T00:58:04.355Z,17.30
2018-09-20T01:00:38.394Z,17.30
2018-09-20T01:03:06.900Z,17.30
2018-09-20T01:05:35.336Z,17.30
2018-09-20T01:08:03.776Z,17.30
2018-09-20T01:10:32.254Z,17.20
2018-09-20T01:13:00.694Z,17.20
2018-09-20T01:15:29.112Z,17.20
2018-09-20T01:17:57.541Z,17.20
2018-09-20T01:20:26.028Z,17.10
2018-09-20T01:22:54.468Z,17.10
2018-09-20T01:25:22.950Z,17.00
2018-09-20T01:27:51.387Z,16.90
2018-09-20T01:30:19.849Z,16.90
2018-09-20T01:32:48.332Z,16.80
2018-09-20T01:35:16.814Z,16.80
2018-09-20T01:37:45.229Z,16.70
2018-09-20T01:40:13.661Z,16.70
2018-09-20T01:42:42.077Z,16.60
2018-09-20T01:45:10.499Z,16.50
2018-09-20T01:47:38.937Z,16.40
2018-09-20T01:50:07.417Z,16.40
2018-09-20T01:52:35.843Z,16.30
2018-09-20T01:55:04.371Z,16.40
2018-09-20T01:57:32.787Z,16.40
2018-09-20T02:00:01.228Z,16.40
2018-09-20T02:02:29.674Z,16.40
2018-09-20T02:04:58.101Z,16.30
2018-09-20T02:07:26.522Z,16.30
2018-09-20T02:09:54.938Z,16.40
2018-09-20T02:12:23.419Z,16.40
2018-09-20T02:14:51.839Z,16.30
2018-09-20T02:17:20.314Z,16.30
2018-09-20T02:19:48.742Z,16.30
2018-09-20T02:22:17.157Z,16.30
2018-09-20T02:24:45.559Z,16.40
2018-09-20T02:27:13.978Z,16.40
2018-09-20T02:29:42.415Z,16.40
2018-09-20T02:32:10.837Z,16.50
2018-09-20T02:34:39.250Z,16.50
2018-09-20T02:37:07.681Z,16.50
2018-09-20T02:39:36.210Z,16.50
2018-09-20T02:42:04.690Z,16.50
2018-09-20T02:44:33.131Z,16.50
2018-09-20T02:47:01.559Z,16.50
2018-09-20T02:49:29.986Z,16.50
2018-09-20T02:51:58.439Z,16.50
2018-09-20T02:54:26.865Z,16.50
2018-09-20T02:56:55.316Z,16.50
2018-09-20T02:59:23.758Z,16.50
2018-09-20T03:01:52.194Z,16.50
2018-09-20T03:04:20.644Z,16.50
2018-09-20T03:06:49.078Z,16.40
2018-09-20T03:09:17.490Z,16.40
2018-09-20T03:11:45.928Z,16.40
2018-09-20T03:14:14.369Z,16.30
2018-09-20T03:16:42.816Z,16.30
2018-09-20T03:19:11.291Z,16.30
2018-09-20T03:21:39.738Z,16.30
2018-09-20T03:24:08.204Z,16.20
2018-09-20T03:26:36.657Z,16.20
2018-09-20T03:29:05.217Z,16.20
2018-09-20T03:31:33.667Z,16.10
2018-09-20T03:34:02.159Z,16.10
2018-09-20T03:36:30.579Z,16.00
2018-09-20T03:38:59.038Z,16.00
2018-09-20T03:41:27.513Z,16.00
2018-09-20T03:43:55.957Z,15.90
2018-09-20T03:46:24.403Z,15.90
2018-09-20T03:48:52.847Z,15.90
2018-09-20T03:51:21.253Z,15.90
2018-09-20T03:53:49.692Z,15.90
2018-09-20T03:56:18.104Z,15.90
2018-09-20T03:58:46.580Z,15.80
2018-09-20T04:01:14.998Z,15.80
2018-09-20T04:03:43.478Z,15.80
2018-09-20T04:06:11.908Z,15.80
2018-09-20T04:08:40.350Z,15.80
2018-09-20T04:11:08.795Z,15.80
2018-09-20T04:13:37.223Z,15.80
2018-09-20T04:16:05.656Z,15.70
2018-09-20T04:18:34.102Z,15.80
2018-09-20T04:21:02.568Z,15.70
2018-09-20T04:23:31.008Z,15.80
2018-09-20T04:25:59.466Z,15.80
2018-09-20T04:28:27.911Z,15.80
2018-09-20T04:30:56.340Z,15.80
2018-09-20T04:33:24.789Z,15.80
2018-09-20T04:35:53.250Z,15.80
2018-09-20T04:38:21.712Z,15.80
2018-09-20T04:40:50.262Z,15.80
2018-09-20T04:43:18.668Z,15.80
2018-09-20T04:45:47.106Z,15.80
2018-09-20T04:48:16.236Z,15.90
2018-09-20T04:50:44.676Z,15.90
2018-09-20T04:53:13.133Z,15.90
2018-09-20T04:55:41.600Z,15.90
2018-09-20T04:58:10.068Z,15.90
2018-09-20T05:00:38.540Z,15.90
2018-09-20T05:03:07.102Z,15.90
2018-09-20T05:05:36.454Z,15.90
2018-09-20T05:08:06.184Z,15.90
2018-09-20T05:10:34.674Z,15.90
2018-09-20T05:13:03.546Z,15.80
2018-09-20T05:15:32.358Z,15.80
2018-09-20T05:18:02.337Z,15.80
2018-09-20T05:20:30.762Z,15.80
2018-09-20T05:23:00.202Z,15.80
2018-09-20T05:25:29.173Z,15.80
2018-09-20T05:27:57.823Z,15.80
2018-09-20T05:30:26.229Z,15.80
2018-09-20T05:32:56.152Z,15.80
2018-09-20T05:35:24.629Z,15.90
2018-09-20T05:37:53.019Z,15.90
2018-09-20T05:47:14.255Z,15.90
2018-09-20T05:49:42.720Z,15.90
2018-09-20T05:52:11.183Z,16.00
2018-09-20T05:54:40.390Z,16.00
2018-09-20T05:57:08.823Z,16.00
2018-09-20T05:59:37.311Z,16.10
2018-09-20T06:02:06.465Z,16.20
2018-09-20T06:04:34.936Z,16.20
2018-09-20T06:07:03.431Z,16.20
2018-09-20T06:09:31.929Z,16.30
2018-09-20T06:12:00.374Z,16.30
2018-09-20T06:14:28.790Z,16.30
2018-09-20T06:16:57.233Z,16.40
2018-09-20T06:19:25.715Z,16.40
2018-09-20T06:21:54.235Z,16.50
2018-09-20T06:24:22.658Z,16.60
2018-09-20T06:26:51.074Z,16.70
2018-09-20T06:29:19.480Z,16.80
2018-09-20T06:31:47.914Z,16.90
2018-09-20T06:34:16.353Z,17.10
2018-09-20T06:36:44.775Z,17.10
2018-09-20T06:39:13.634Z,17.00
2018-09-20T06:41:42.660Z,17.10
2018-09-20T06:44:11.228Z,17.10
2018-09-20T06:46:39.888Z,17.20
2018-09-20T06:49:08.304Z,17.20
2018-09-20T06:51:36.714Z,17.30
2018-09-20T06:54:05.183Z,17.40
2018-09-20T06:56:33.653Z,17.50
2018-09-20T06:59:02.070Z,17.60
2018-09-20T07:01:30.524Z,17.60
2018-09-20T07:03:58.968Z,17.70
2018-09-20T07:06:27.386Z,17.80
2018-09-20T07:08:55.851Z,17.80
2018-09-20T07:11:24.285Z,17.90
2018-09-20T07:13:52.730Z,18.00
2018-09-20T07:16:21.162Z,18.00
2018-09-20T07:18:49.663Z,18.20
2018-09-20T07:21:18.137Z,18.30
2018-09-20T07:23:46.584Z,18.40
2018-09-20T07:26:15.020Z,18.50
2018-09-20T07:28:43.487Z,18.50
2018-09-20T07:31:12.004Z,18.60
2018-09-20T07:33:40.477Z,18.70
2018-09-20T07:36:08.935Z,18.80
2018-09-20T07:38:37.445Z,18.90
2018-09-20T07:41:05.906Z,19.10
2018-09-20T07:43:34.407Z,19.30
2018-09-20T07:46:02.827Z,19.20
2018-09-20T07:48:31.288Z,19.20
2018-09-20T07:50:59.707Z,19.20
2018-09-20T07:53:28.110Z,19.10
2018-09-20T07:55:56.551Z,19.10
2018-09-20T07:58:24.991Z,19.00
2018-09-20T08:00:53.515Z,19.00
2018-09-20T08:03:22.126Z,19.20
2018-09-20T08:05:50.613Z,19.40
2018-09-20T08:08:19.288Z,19.50
2018-09-20T08:10:47.755Z,19.80
2018-09-20T08:13:16.246Z,20.10
2018-09-20T08:15:44.730Z,20.60
2018-09-20T08:18:13.238Z,21.00
2018-09-20T08:20:41.676Z,20.50
2018-09-20T08:23:10.104Z,20.30
2018-09-20T08:25:38.989Z,20.60
2018-09-20T08:28:07.627Z,21.50
2018-09-20T08:30:36.130Z,21.90
2018-09-20T08:33:04.633Z,21.90
2018-09-20T08:35:33.058Z,21.70
2018-09-20T08:38:01.524Z,21.30
2018-09-20T08:40:29.974Z,21.20
2018-09-20T08:42:58.412Z,20.70
2018-09-20T08:45:26.830Z,20.60
2018-09-20T08:47:55.281Z,20.70
2018-09-20T08:50:23.708Z,21.30
2018-09-20T08:52:52.169Z,21.30
2018-09-20T08:55:20.592Z,21.10
2018-09-20T08:57:55.483Z,20.80
2018-09-20T09:00:24.275Z,20.50
2018-09-20T09:02:52.757Z,20.70
2018-09-20T09:05:21.281Z,21.00
2018-09-20T09:07:50.005Z,21.40
2018-09-20T09:10:18.521Z,21.80
2018-09-20T09:12:47.049Z,22.00
2018-09-20T09:15:15.561Z,21.90
2018-09-20T09:17:44.039Z,21.40
2018-09-20T09:20:12.566Z,21.00
2018-09-20T09:22:42.197Z,21.20
2018-09-20T09:25:10.661Z,21.50
2018-09-20T09:27:39.077Z,21.30
2018-09-20T09:30:07.585Z,21.00
2018-09-20T09:32:36.070Z,20.90
2018-09-20T09:35:04.592Z,21.20
2018-09-20T09:37:33.114Z,21.40
2018-09-20T09:40:01.628Z,22.40
2018-09-20T09:42:30.117Z,23.40
2018-09-20T09:44:58.584Z,23.30
2018-09-20T09:47:27.033Z,23.30
2018-09-20T09:49:55.472Z,23.60
2018-09-20T09:52:24.088Z,24.10
2018-09-20T09:54:52.614Z,24.20
2018-09-20T09:57:21.021Z,24.70
2018-09-20T09:59:49.513Z,25.60
2018-09-20T10:02:17.942Z,25.10
2018-09-20T10:04:46.408Z,24.10
2018-09-20T10:07:14.909Z,23.00
2018-09-20T10:09:43.320Z,22.60
2018-09-20T10:12:11.790Z,22.80
2018-09-20T10:14:40.230Z,22.90
2018-09-20T10:17:08.716Z,22.90
2018-09-20T10:19:37.158Z,23.60
2018-09-20T10:22:05.627Z,23.90
2018-09-20T10:24:34.088Z,24.60
2018-09-20T10:27:02.538Z,27.00
2018-09-20T10:29:30.976Z,28.60
2018-09-20T10:31:59.430Z,28.00
2018-09-20T10:34:27.850Z,27.40
2018-09-20T10:36:56.315Z,27.10
2018-09-20T10:39:24.731Z,27.20
2018-09-20T10:41:53.242Z,27.50
2018-09-20T10:44:21.751Z,26.80
2018-09-20T10:46:50.207Z,26.70
2018-09-20T10:49:18.653Z,26.90
2018-09-20T10:51:47.090Z,28.00
2018-09-20T10:54:15.537Z,28.10
2018-09-20T10:56:43.962Z,27.60
2018-09-20T10:59:12.435Z,28.70
2018-09-20T11:01:40.953Z,28.80
2018-09-20T11:04:09.400Z,28.10
2018-09-20T11:06:37.833Z,27.50
2018-09-20T11:09:08.875Z,27.30
2018-09-20T11:11:37.405Z,28.80
2018-09-20T11:14:06.068Z,29.30
2018-09-20T11:16:34.512Z,28.40
2018-09-20T11:19:02.975Z,27.50
2018-09-20T11:21:31.442Z,26.60
2018-09-20T11:23:59.873Z,26.10
2018-09-20T11:26:28.311Z,26.80
2018-09-20T11:28:56.778Z,27.90
2018-09-20T11:31:25.257Z,26.80
2018-09-20T11:33:53.743Z,25.80
2018-09-20T11:36:22.296Z,25.30
2018-09-20T11:38:50.724Z,24.90
2018-09-20T11:41:19.237Z,26.20
2018-09-20T11:43:48.129Z,28.10
2018-09-20T11:46:16.548Z,27.90
2018-09-20T11:48:45.019Z,28.40
2018-09-20T11:51:13.487Z,27.40
2018-09-20T11:53:41.924Z,28.10
2018-09-20T11:56:10.385Z,29.70
2018-09-20T11:58:38.847Z,28.80
2018-09-20T12:01:07.294Z,29.70
2018-09-20T12:03:35.806Z,30.30
2018-09-20T12:06:04.290Z,29.80
2018-09-20T12:08:32.803Z,30.10
2018-09-20T12:11:01.206Z,31.10
2018-09-20T12:13:29.662Z,31.30
2018-09-20T12:15:58.112Z,30.70
2018-09-20T12:18:26.560Z,30.90
2018-09-20T12:20:55.016Z,31.40
2018-09-20T12:23:23.454Z,31.10
2018-09-20T12:25:51.947Z,29.40
2018-09-20T12:28:20.381Z,28.00
2018-09-20T12:30:48.855Z,27.30
2018-09-20T12:33:17.374Z,27.90
2018-09-20T12:35:45.881Z,28.00
2018-09-20T12:38:14.342Z,28.20
2018-09-20T12:40:42.776Z,28.30
2018-09-20T12:43:11.259Z,27.90
2018-09-20T12:45:39.713Z,27.00
2018-09-20T12:48:08.192Z,26.80
2018-09-20T12:50:36.621Z,26.50
2018-09-20T12:53:05.243Z,27.40
2018-09-20T12:55:33.739Z,27.60
2018-09-20T12:58:02.186Z,27.60
2018-09-20T13:00:30.649Z,27.70
2018-09-20T13:02:59.164Z,27.20
2018-09-20T13:05:27.779Z,27.20
2018-09-20T13:07:56.231Z,27.50
2018-09-20T13:10:24.667Z,27.20
2018-09-20T13:12:53.139Z,26.70
2018-09-20T13:15:21.567Z,26.70
2018-09-20T13:17:50.001Z,26.90
2018-09-20T13:20:18.527Z,27.30
2018-09-20T13:22:46.977Z,27.50
2018-09-20T13:25:15.576Z,27.50
2018-09-20T13:27:44.195Z,27.50
2018-09-20T13:30:12.658Z,27.00
2018-09-20T13:32:41.107Z,27.10
2018-09-20T13:35:09.578Z,27.10
2018-09-20T13:37:38.091Z,26.60
2018-09-20T13:40:06.608Z,26.20
2018-09-20T13:42:35.066Z,26.30
2018-09-20T13:45:03.602Z,26.30
2018-09-20T13:47:32.101Z,25.90
2018-09-20T13:50:00.551Z,25.70
2018-09-20T13:52:29.041Z,25.50
2018-09-20T13:55:04.315Z,25.40
2018-09-20T13:57:32.751Z,25.40
2018-09-20T14:00:01.279Z,25.40
2018-09-20T14:02:29.731Z,26.10
2018-09-20T14:05:05.021Z,26.70
2018-09-20T14:07:33.595Z,27.30
2018-09-20T14:10:02.037Z,28.20
2018-09-20T14:12:30.507Z,28.50
2018-09-20T14:14:58.954Z,28.10
2018-09-20T14:17:27.412Z,27.60
2018-09-20T14:19:55.852Z,26.80
2018-09-20T14:22:24.274Z,26.90
2018-09-20T14:24:52.734Z,27.20
2018-09-20T14:27:21.208Z,27.50
2018-09-20T14:29:49.684Z,27.00
2018-09-20T14:32:18.120Z,26.50
2018-09-20T14:34:46.604Z,26.60
2018-09-20T14:37:15.040Z,26.60
2018-09-20T14:39:43.480Z,26.50
2018-09-20T14:42:11.950Z,26.50
2018-09-20T14:44:40.411Z,26.50
2018-09-20T14:47:08.966Z,26.70
2018-09-20T14:49:37.523Z,26.80
2018-09-20T14:52:06.077Z,26.80
2018-09-20T14:54:34.504Z,26.80
2018-09-20T14:57:03.000Z,26.70
2018-09-20T14:59:31.436Z,26.70
2018-09-20T15:01:59.882Z,26.80
2018-09-20T15:04:28.424Z,26.80
2018-09-20T15:06:56.862Z,26.60
2018-09-20T15:09:25.324Z,27.00
2018-09-20T15:11:53.834Z,26.60
2018-09-20T15:14:22.302Z,26.00
2018-09-20T15:16:50.764Z,25.50
2018-09-20T15:19:19.326Z,25.10
2018-09-20T15:21:47.797Z,24.90
2018-09-20T15:24:16.305Z,24.80
2018-09-20T15:26:44.768Z,24.90
2018-09-20T15:29:13.236Z,25.10
2018-09-20T15:31:41.762Z,25.20
2018-09-20T15:34:10.238Z,25.30
2018-09-20T15:36:38.756Z,25.20
2018-09-20T15:39:09.280Z,25.00
2018-09-20T15:41:37.758Z,25.00
2018-09-20T15:44:06.217Z,24.90
2018-09-20T15:46:34.716Z,24.90
2018-09-20T15:49:03.474Z,24.80
2018-09-20T15:51:31.966Z,24.70
2018-09-20T15:54:00.506Z,24.70
2018-09-20T15:56:28.979Z,24.80
2018-09-20T15:58:57.456Z,24.90
2018-09-20T16:01:25.915Z,24.90
2018-09-20T16:03:54.347Z,24.90
2018-09-20T16:06:22.816Z,24.70
2018-09-20T16:08:51.905Z,24.50
2018-09-20T16:11:20.342Z,24.40
2018-09-20T16:13:48.822Z,24.30
2018-09-20T16:16:17.280Z,24.30
2018-09-20T16:18:45.780Z,24.30
2018-09-20T16:21:14.286Z,24.20
2018-09-20T16:23:42.746Z,24.30
2018-09-20T16:26:11.210Z,24.20
2018-09-20T16:28:56.431Z,24.20
2018-09-20T16:32:39.232Z,24.20
2018-09-20T16:36:21.681Z,24.10
2018-09-20T16:39:00.737Z,24.00
2018-09-20T16:41:34.610Z,23.90
2018-09-20T16:44:03.181Z,23.90
2018-09-20T16:46:31.784Z,23.80
2018-09-20T16:49:00.410Z,23.70
2018-09-20T16:51:28.893Z,23.70
2018-09-20T16:53:57.372Z,23.70
2018-09-20T16:56:25.809Z,23.60
2018-09-20T16:58:54.777Z,23.60
2018-09-20T17:01:23.657Z,23.50
2018-09-20T17:03:52.125Z,23.50
2018-09-20T17:06:20.929Z,23.50
2018-09-20T17:08:50.009Z,23.50
2018-09-20T17:11:18.427Z,23.40
2018-09-20T17:13:47.077Z,23.40
2018-09-20T17:16:15.622Z,23.30
2018-09-20T17:18:44.028Z,23.30
2018-09-20T17:21:12.494Z,23.20
2018-09-20T17:23:41.146Z,23.10
2018-09-20T17:26:09.753Z,23.10
2018-09-20T17:28:38.536Z,23.00
2018-09-20T17:31:07.288Z,23.00
2018-09-20T17:33:35.731Z,23.00
2018-09-20T17:36:04.230Z,23.00
2018-09-20T17:38:33.692Z,22.90
2018-09-20T17:41:39.606Z,22.90
2018-09-20T17:44:08.879Z,22.80
2018-09-20T17:46:37.355Z,22.80
2018-09-20T17:49:05.926Z,22.70
2018-09-20T17:51:34.841Z,22.60
2018-09-20T17:54:03.534Z,22.60
2018-09-20T17:56:32.440Z,22.60
2018-09-20T17:59:01.271Z,22.50
2018-09-20T18:01:29.757Z,22.40
2018-09-20T18:03:58.220Z,22.30
2018-09-20T18:06:26.677Z,22.30
2018-09-20T18:08:55.139Z,22.30
2018-09-20T18:11:23.633Z,22.20
2018-09-20T18:13:52.093Z,22.20
2018-09-20T18:16:20.593Z,22.20
2018-09-20T18:18:49.098Z,22.20
2018-09-20T18:21:17.597Z,22.20
2018-09-20T18:23:46.048Z,22.20
2018-09-20T18:26:14.527Z,22.20
2018-09-20T18:28:43.007Z,22.20
2018-09-20T18:31:11.457Z,22.10
2018-09-20T18:33:39.975Z,22.10
2018-09-20T18:36:08.485Z,22.10
2018-09-20T18:38:37.057Z,22.00
2018-09-20T18:41:05.563Z,22.00
2018-09-20T18:43:34.022Z,22.00
2018-09-20T18:46:02.500Z,21.90
2018-09-20T18:48:30.985Z,21.80
2018-09-20T18:50:59.462Z,21.70
2018-09-20T18:53:27.900Z,21.70
2018-09-20T18:55:56.355Z,21.60
2018-09-20T18:58:24.833Z,21.60
2018-09-20T19:00:53.836Z,21.50
2018-09-20T19:03:23.219Z,21.50
2018-09-20T19:05:51.688Z,21.50
2018-09-20T19:08:20.504Z,21.50
2018-09-20T19:10:49.076Z,21.40
2018-09-20T19:13:17.602Z,21.40
2018-09-20T19:15:46.152Z,21.30
2018-09-20T19:18:14.626Z,21.30
2018-09-20T19:20:43.145Z,21.20
2018-09-20T19:23:11.653Z,21.20
2018-09-20T19:25:40.184Z,21.10
2018-09-20T19:28:08.783Z,21.10
2018-09-20T19:30:37.232Z,21.00
2018-09-20T19:33:05.730Z,21.00
2018-09-20T19:35:34.258Z,20.90
2018-09-20T19:38:02.769Z,20.90
2018-09-20T19:40:31.256Z,20.90
2018-09-20T19:42:59.730Z,20.80
2018-09-20T19:45:28.203Z,20.80
2018-09-20T19:47:56.640Z,20.80
2018-09-20T19:50:25.086Z,20.90
2018-09-20T19:52:53.570Z,20.80
2018-09-20T19:55:22.063Z,20.90
2018-09-20T19:57:50.550Z,20.90
2018-09-20T20:00:19.073Z,20.90
2018-09-20T20:02:47.544Z,20.90
2018-09-20T20:05:16.015Z,20.90
2018-09-20T20:07:44.549Z,20.90
2018-09-20T20:10:12.989Z,21.00
2018-09-20T20:12:41.431Z,21.00
2018-09-20T20:15:09.878Z,20.90
2018-09-20T20:17:38.354Z,20.90
2018-09-20T20:20:06.950Z,20.90
2018-09-20T20:22:35.513Z,20.90
2018-09-20T20:25:04.063Z,20.90
2018-09-20T20:27:32.523Z,20.90
2018-09-20T20:30:00.970Z,20.90
2018-09-20T20:32:29.458Z,20.90
2018-09-20T20:34:57.903Z,20.80
2018-09-20T20:37:26.407Z,20.90
2018-09-20T20:39:55.005Z,20.90
2018-09-20T20:42:23.397Z,20.80
2018-09-20T20:44:51.901Z,20.80
2018-09-20T20:47:20.368Z,20.80
2018-09-20T20:49:48.806Z,20.70
2018-09-20T20:52:17.269Z,20.70
2018-09-20T20:54:45.735Z,20.70
2018-09-20T20:57:14.194Z,20.70
2018-09-20T20:59:45.514Z,20.70
2018-09-20T21:02:13.926Z,20.70
2018-09-20T21:04:42.362Z,20.60
2018-09-20T21:07:10.825Z,20.60
2018-09-20T21:09:39.317Z,20.60
2018-09-20T21:12:07.784Z,20.60
2018-09-20T21:14:36.253Z,20.60
2018-09-20T21:17:04.740Z,20.60
2018-09-20T21:19:33.181Z,20.60
2018-09-20T21:22:01.641Z,20.70
2018-09-20T21:24:30.100Z,20.70
2018-09-20T21:26:58.555Z,20.70
2018-09-20T21:29:27.007Z,20.70
2018-09-20T21:31:55.428Z,20.70
2018-09-20T21:34:23.905Z,20.70
2018-09-20T21:36:52.441Z,20.70
2018-09-20T21:39:20.871Z,20.70
2018-09-20T21:41:49.351Z,20.70
2018-09-20T21:44:17.785Z,20.70
2018-09-20T21:46:46.231Z,20.70
2018-09-20T21:49:14.724Z,20.70
2018-09-20T21:51:43.169Z,20.60
2018-09-20T21:54:11.644Z,20.60
2018-09-20T21:56:40.125Z,20.70
2018-09-20T21:59:08.584Z,20.60
2018-09-20T22:01:42.417Z,20.50
2018-09-20T22:04:10.900Z,20.50
2018-09-20T22:06:39.396Z,20.50
2018-09-20T22:09:10.228Z,20.60
2018-09-20T22:11:39.282Z,20.60
2018-09-20T22:14:07.818Z,20.50
2018-09-20T22:16:36.544Z,20.60
2018-09-20T22:19:05.128Z,20.50
2018-09-20T22:21:33.918Z,20.50
2018-09-20T22:24:02.392Z,20.40
2018-09-20T22:26:30.919Z,20.50
2018-09-20T22:28:59.431Z,20.40
2018-09-20T22:31:27.944Z,20.40
2018-09-20T22:33:56.416Z,20.40
2018-09-20T22:36:24.895Z,20.30
2018-09-20T22:38:53.335Z,20.30
2018-09-20T22:41:21.809Z,20.30
2018-09-20T22:43:50.295Z,20.20
2018-09-20T22:46:18.903Z,20.20
2018-09-20T22:48:47.426Z,20.20
2018-09-20T22:51:15.925Z,20.10
2018-09-20T22:53:44.467Z,20.10
2018-09-20T22:56:12.901Z,20.00
2018-09-20T22:58:41.379Z,20.00
2018-09-20T23:01:14.060Z,19.90
2018-09-20T23:03:42.867Z,19.90
2018-09-20T23:06:11.355Z,19.80
2018-09-20T23:08:39.818Z,19.80
2018-09-20T23:11:08.298Z,19.80
2018-09-20T23:13:36.764Z,19.80
2018-09-20T23:16:05.241Z,19.80
2018-09-20T23:18:33.731Z,19.80
2018-09-20T23:21:02.205Z,19.80
2018-09-20T23:23:30.678Z,19.80
2018-09-20T23:25:59.122Z,19.90
2018-09-20T23:28:27.602Z,19.90
2018-09-20T23:30:56.083Z,19.90
2018-09-20T23:33:24.567Z,19.90
2018-09-20T23:35:53.167Z,19.90
2018-09-20T23:38:21.691Z,19.90
2018-09-20T23:40:50.164Z,19.90
2018-09-20T23:43:18.583Z,19.90
2018-09-20T23:45:47.013Z,20.00
2018-09-20T23:48:15.458Z,19.90
2018-09-20T23:50:43.917Z,19.90
2018-09-20T23:53:12.330Z,19.90
2018-09-20T23:55:40.775Z,19.90
2018-09-20T23:58:09.249Z,19.90
